Time;durP1;ratioP1;P1;durP2;ratioP2;P2;SDS_P1;SDS_P2;PMS_P1;PMS_P2;Temp;Humidity;BMP_temperature;BMP_pressure;BME280_temperature;BME280_humidity;BME280_pressure;Samples;Min_cycle;Max_cycle;Signal;HPM_P1;HPM_P2
2022/10/10 00:01:14;;;;;;;1.50;1.10;;;11.50;98.20;;;;;;5065946;28;20744;-79
2022/10/10 00:03:42;;;;;;;1.50;1.10;;;11.50;98.20;;;;;;5102189;28;20543;-79
2022/10/10 00:06:11;;;;;;;1.50;1.20;;;11.50;98.20;;;;;;5079129;28;20472;-80
2022/10/10 00:08:38;;;;;;;1.50;1.20;;;11.50;98.20;;;;;;5088460;28;20480;-80
2022/10/10 00:11:06;;;;;;;1.50;1.10;;;11.50;98.20;;;;;;5085016;28;20987;-79
2022/10/10 00:13:33;;;;;;;1.47;1.10;;;11.50;98.20;;;;;;5105180;28;20464;-78
2022/10/10 00:16:00;;;;;;;1.50;1.10;;;11.50;98.20;;;;;;5082737;28;20467;-79
2022/10/10 00:18:27;;;;;;;1.50;1.10;;;11.50;98.20;;;;;;5092742;28;20484;-80
2022/10/10 00:20:54;;;;;;;1.50;1.00;;;11.50;98.20;;;;;;5085105;28;20552;-80
2022/10/10 00:23:23;;;;;;;1.50;1.13;;;11.50;98.20;;;;;;5094805;28;20543;-80
2022/10/10 00:25:50;;;;;;;1.47;1.10;;;11.50;98.20;;;;;;5082114;28;20503;-79
2022/10/10 00:28:18;;;;;;;1.47;1.10;;;11.50;98.20;;;;;;5083652;28;20486;-80
2022/10/10 00:30:45;;;;;;;1.50;1.20;;;11.50;98.20;;;;;;5091678;28;21094;-79
2022/10/10 00:33:12;;;;;;;1.50;1.20;;;11.50;98.20;;;;;;5079976;28;20476;-79
2022/10/10 00:35:39;;;;;;;1.50;1.40;;;11.40;98.20;;;;;;5090351;28;20518;-79
2022/10/10 00:38:06;;;;;;;1.50;1.10;;;11.40;98.20;;;;;;5079128;28;20475;-79
2022/10/10 00:40:35;;;;;;;1.50;1.10;;;11.40;98.20;;;;;;5086506;28;20488;-80
2022/10/10 00:43:02;;;;;;;1.50;1.10;;;11.40;98.20;;;;;;5094733;28;20521;-79
2022/10/10 00:45:37;;;;;;;1.50;1.10;;;11.30;98.20;;;;;;5090827;28;20463;-79
2022/10/10 00:48:07;;;;;;;1.50;1.30;;;11.30;98.20;;;;;;5078596;28;20858;-79
2022/10/10 00:50:37;;;;;;;1.50;1.10;;;11.30;98.20;;;;;;5090904;28;20467;-81
2022/10/10 00:53:08;;;;;;;1.50;1.20;;;11.30;98.20;;;;;;5093641;28;21370;-79
2022/10/10 00:55:37;;;;;;;1.50;1.00;;;11.30;98.20;;;;;;5090880;28;20477;-80
2022/10/10 00:58:06;;;;;;;1.50;1.17;;;11.20;98.20;;;;;;5095068;28;20528;-79
2022/10/10 01:00:33;;;;;;;1.50;1.10;;;11.20;98.20;;;;;;5091134;28;20456;-79
2022/10/10 01:03:00;;;;;;;1.50;1.10;;;11.20;98.20;;;;;;5079358;28;20511;-80
2022/10/10 01:05:27;;;;;;;1.60;1.43;;;11.20;98.20;;;;;;5090546;28;20539;-79
2022/10/10 01:07:55;;;;;;;1.50;1.10;;;11.20;98.20;;;;;;5078582;28;20575;-79
2022/10/10 01:10:23;;;;;;;1.50;1.10;;;11.20;98.20;;;;;;5091465;28;20889;-79
2022/10/10 01:13:04;;;;;;;1.50;1.20;;;11.20;98.20;;;;;;5095366;28;20575;-80
2022/10/10 01:15:39;;;;;;;1.50;1.23;;;11.20;98.20;;;;;;5070938;28;20552;-81
2022/10/10 01:18:16;;;;;;;1.50;1.10;;;11.20;98.20;;;;;;5094567;28;20487;-79
2022/10/10 01:21:10;;;;;;;1.50;1.20;;;11.20;98.20;;;;;;5090314;28;20452;-79
2022/10/10 01:24:03;;;;;;;1.50;1.20;;;11.10;98.20;;;;;;5079859;28;20978;-81
2022/10/10 01:26:59;;;;;;;1.50;1.10;;;11.10;98.20;;;;;;5080090;28;20512;-79
2022/10/10 01:29:30;;;;;;;1.50;1.10;;;11.10;98.20;;;;;;5090450;28;20520;-79
2022/10/10 01:32:08;;;;;;;1.50;1.10;;;11.10;98.20;;;;;;5080835;28;20571;-80
2022/10/10 01:34:41;;;;;;;1.50;1.10;;;11.10;98.20;;;;;;5095074;28;20522;-79
2022/10/10 01:37:18;;;;;;;1.50;1.10;;;11.10;98.20;;;;;;5077886;28;20852;-79
2022/10/10 01:39:52;;;;;;;1.50;1.10;;;11.10;98.20;;;;;;5089217;28;20484;-78
2022/10/10 01:42:25;;;;;;;1.50;1.10;;;11.10;98.20;;;;;;5090869;28;20482;-79
2022/10/10 01:44:54;;;;;;;1.50;1.10;;;11.10;98.20;;;;;;5075422;28;20546;-79
2022/10/10 01:47:21;;;;;;;1.50;1.10;;;11.10;98.20;;;;;;5083611;28;20541;-79
2022/10/10 01:49:51;;;;;;;1.50;1.10;;;11.10;98.20;;;;;;5088413;28;20472;-80
2022/10/10 01:52:29;;;;;;;1.50;1.20;;;11.10;98.20;;;;;;5080668;28;21071;-78
2022/10/10 01:55:08;;;;;;;1.50;1.10;;;11.10;98.20;;;;;;5090902;28;20448;-79
2022/10/10 01:57:42;;;;;;;1.50;1.10;;;11.00;98.20;;;;;;5066410;28;20565;-78
2022/10/10 02:00:13;;;;;;;1.50;1.20;;;11.00;98.20;;;;;;5088268;28;20490;-79
2022/10/10 02:02:49;;;;;;;1.50;1.10;;;11.00;98.20;;;;;;5077000;28;20487;-79
2022/10/10 02:05:23;;;;;;;1.50;1.10;;;11.00;98.20;;;;;;5090225;28;20464;-79
2022/10/10 02:07:56;;;;;;;1.50;1.10;;;11.00;98.20;;;;;;5095662;28;20483;-79
2022/10/10 02:10:28;;;;;;;1.50;1.20;;;11.00;98.20;;;;;;5082843;28;20460;-79
2022/10/10 02:12:57;;;;;;;1.50;1.10;;;11.00;98.20;;;;;;5084452;28;20481;-79
2022/10/10 02:15:28;;;;;;;1.50;1.17;;;11.00;98.20;;;;;;5093292;28;20508;-79
2022/10/10 02:17:57;;;;;;;1.50;1.10;;;10.90;98.20;;;;;;5077370;28;20476;-78
2022/10/10 02:20:27;;;;;;;1.50;1.20;;;10.90;98.20;;;;;;5089052;28;20519;-79
2022/10/10 02:22:55;;;;;;;1.50;1.10;;;10.90;98.20;;;;;;5076277;28;20488;-80
2022/10/10 02:25:27;;;;;;;1.50;1.10;;;10.90;98.20;;;;;;5088200;28;20525;-79
2022/10/10 02:28:01;;;;;;;1.50;1.10;;;10.90;98.20;;;;;;5089828;28;20491;-78
2022/10/10 02:30:31;;;;;;;1.50;1.10;;;10.90;98.20;;;;;;5083603;28;20460;-79
2022/10/10 02:33:01;;;;;;;1.50;1.10;;;10.90;98.20;;;;;;5078014;28;20579;-79
2022/10/10 02:35:32;;;;;;;1.50;1.13;;;10.90;98.20;;;;;;5083439;28;20456;-79
2022/10/10 02:38:01;;;;;;;1.50;1.10;;;10.90;98.20;;;;;;5083520;28;20480;-79
2022/10/10 02:40:31;;;;;;;1.50;1.13;;;10.90;98.20;;;;;;5088614;28;20514;-79
2022/10/10 02:43:00;;;;;;;1.50;1.00;;;10.90;98.20;;;;;;5076944;28;20567;-79
2022/10/10 02:45:32;;;;;;;1.50;1.10;;;10.80;98.20;;;;;;5088218;28;20522;-79
2022/10/10 02:47:59;;;;;;;1.50;1.10;;;10.80;98.20;;;;;;5092245;28;20488;-79
2022/10/10 02:50:27;;;;;;;1.50;1.23;;;10.80;98.20;;;;;;5086942;28;20455;-79
2022/10/10 02:52:54;;;;;;;1.50;1.10;;;10.80;98.20;;;;;;5074927;28;20492;-80
2022/10/10 02:55:21;;;;;;;1.50;1.10;;;10.80;98.20;;;;;;5089545;28;20525;-79
2022/10/10 02:57:48;;;;;;;1.50;1.10;;;10.80;98.20;;;;;;5094068;28;20487;-79
2022/10/10 03:00:16;;;;;;;1.50;1.20;;;10.80;98.20;;;;;;5070013;28;20554;-79
2022/10/10 03:02:44;;;;;;;1.50;1.10;;;10.70;98.20;;;;;;5090187;28;20483;-79
2022/10/10 03:05:12;;;;;;;1.50;1.10;;;10.70;98.20;;;;;;5089778;28;20488;-79
2022/10/10 03:07:39;;;;;;;1.50;1.10;;;10.70;98.20;;;;;;5078276;28;20553;-79
2022/10/10 03:10:07;;;;;;;1.50;1.20;;;10.70;98.20;;;;;;5090155;28;20484;-79
2022/10/10 03:12:34;;;;;;;1.50;1.10;;;10.70;98.20;;;;;;5078570;28;20857;-81
2022/10/10 03:15:01;;;;;;;1.50;1.10;;;10.70;98.20;;;;;;5089884;28;20460;-79
2022/10/10 03:17:28;;;;;;;1.50;1.17;;;10.70;98.20;;;;;;5076701;28;20996;-79
2022/10/10 03:19:56;;;;;;;1.50;1.20;;;10.70;98.20;;;;;;5087099;28;20523;-79
2022/10/10 03:22:24;;;;;;;1.50;1.20;;;10.70;98.20;;;;;;5090114;28;20570;-80
2022/10/10 03:24:51;;;;;;;1.50;1.20;;;10.70;98.20;;;;;;5074672;28;20512;-80
2022/10/10 03:27:17;;;;;;;1.50;1.10;;;10.70;98.20;;;;;;5081499;28;20483;-77
2022/10/10 03:29:45;;;;;;;1.50;1.10;;;10.70;98.20;;;;;;5093113;28;20492;-79
2022/10/10 03:32:12;;;;;;;1.50;1.20;;;10.70;98.20;;;;;;5077301;28;20976;-80
2022/10/10 03:34:39;;;;;;;1.50;1.10;;;10.70;98.20;;;;;;5089447;28;20460;-79
2022/10/10 03:37:07;;;;;;;1.50;1.30;;;10.70;98.20;;;;;;5088730;28;20483;-79
2022/10/10 03:39:34;;;;;;;2.17;1.97;;;10.70;98.20;;;;;;5081174;28;20492;-80
2022/10/10 03:42:01;;;;;;;1.50;1.20;;;10.70;98.20;;;;;;5076936;28;20488;-78
2022/10/10 03:44:28;;;;;;;1.50;1.20;;;10.70;98.20;;;;;;5096168;28;20464;-77
2022/10/10 03:46:55;;;;;;;1.50;1.17;;;10.70;98.20;;;;;;5080995;28;20487;-79
2022/10/10 03:49:22;;;;;;;1.50;1.20;;;10.70;98.20;;;;;;5092424;28;20475;-79
2022/10/10 03:51:49;;;;;;;1.50;1.20;;;10.70;98.20;;;;;;5079734;28;20822;-80
2022/10/10 03:54:18;;;;;;;1.50;1.20;;;10.70;98.20;;;;;;5092694;28;20884;-79
2022/10/10 03:56:45;;;;;;;1.50;1.40;;;10.70;98.20;;;;;;5081017;28;20567;-79
2022/10/10 03:59:12;;;;;;;1.50;1.20;;;10.70;98.20;;;;;;5091171;28;20494;-79
2022/10/10 04:01:39;;;;;;;1.50;1.10;;;10.70;98.20;;;;;;5081975;28;20482;-79
2022/10/10 04:04:06;;;;;;;1.50;1.10;;;10.70;98.20;;;;;;5091899;28;20460;-80
2022/10/10 04:06:33;;;;;;;1.50;1.20;;;10.60;98.20;;;;;;5078562;28;20484;-79
2022/10/10 04:09:00;;;;;;;1.50;1.10;;;10.60;98.20;;;;;;5088704;28;20560;-78
2022/10/10 04:11:28;;;;;;;1.50;1.20;;;10.60;98.20;;;;;;5086100;28;20537;-78
2022/10/10 04:13:55;;;;;;;1.50;1.10;;;10.60;98.20;;;;;;5093500;28;21062;-79
2022/10/10 04:16:22;;;;;;;1.50;1.10;;;10.60;98.20;;;;;;5069874;28;20550;-79
2022/10/10 04:18:49;;;;;;;1.50;1.20;;;10.60;98.20;;;;;;5101556;28;20503;-79
2022/10/10 04:21:16;;;;;;;1.50;1.10;;;10.60;98.20;;;;;;5079593;28;20583;-79
2022/10/10 04:23:43;;;;;;;1.60;1.43;;;10.50;98.20;;;;;;5090142;28;20507;-78
2022/10/10 04:26:10;;;;;;;1.50;1.20;;;10.50;98.20;;;;;;5082920;28;21342;-79
2022/10/10 04:28:39;;;;;;;1.50;1.20;;;10.50;98.20;;;;;;5102339;28;20486;-79
2022/10/10 04:31:07;;;;;;;1.50;1.20;;;10.50;98.20;;;;;;5072899;28;20695;-79
2022/10/10 04:33:34;;;;;;;1.50;1.20;;;10.50;98.20;;;;;;5078851;28;20480;-78
2022/10/10 04:36:01;;;;;;;1.50;1.20;;;10.50;98.20;;;;;;5077286;28;20555;-78
2022/10/10 04:38:29;;;;;;;1.50;1.20;;;10.50;98.20;;;;;;5084751;28;20530;-80
2022/10/10 04:40:56;;;;;;;1.50;1.20;;;10.50;98.20;;;;;;5075117;28;20496;-79
2022/10/10 04:43:23;;;;;;;1.50;1.30;;;10.50;98.20;;;;;;5086035;28;20467;-78
2022/10/10 04:45:51;;;;;;;1.50;1.10;;;10.50;98.20;;;;;;5075484;28;20491;-78
2022/10/10 04:48:18;;;;;;;1.50;1.20;;;10.50;98.20;;;;;;5104144;28;20489;-80
2022/10/10 04:50:51;;;;;;;1.50;1.20;;;10.50;98.20;;;;;;5089874;28;20509;-78
2022/10/10 04:53:18;;;;;;;1.50;1.10;;;10.50;98.20;;;;;;5078128;28;20495;-79
2022/10/10 04:55:45;;;;;;;1.50;1.10;;;10.50;98.20;;;;;;5088778;28;20462;-79
2022/10/10 04:58:13;;;;;;;1.50;1.10;;;10.50;98.20;;;;;;5095350;28;20559;-79
2022/10/10 05:00:40;;;;;;;2.23;2.03;;;10.50;98.20;;;;;;5090926;28;20485;-79
2022/10/10 05:03:11;;;;;;;1.50;1.20;;;10.50;98.20;;;;;;5094875;28;20487;-80
2022/10/10 05:05:39;;;;;;;1.50;1.10;;;10.50;98.20;;;;;;5090666;28;20461;-79
2022/10/10 05:08:06;;;;;;;3.20;3.00;;;10.50;98.20;;;;;;5095285;28;20983;-78
2022/10/10 05:10:37;;;;;;;1.70;1.20;;;10.50;98.20;;;;;;5089713;28;20464;-79
2022/10/10 05:13:05;;;;;;;1.50;1.20;;;10.50;98.20;;;;;;5095586;28;21026;-79
2022/10/10 05:15:34;;;;;;;1.50;1.10;;;10.50;98.20;;;;;;5087951;28;20464;-79
2022/10/10 05:18:02;;;;;;;1.50;1.20;;;10.40;98.20;;;;;;5096003;28;21014;-80
2022/10/10 05:20:31;;;;;;;1.50;1.17;;;10.50;98.20;;;;;;5090592;28;20488;-79
2022/10/10 05:22:59;;;;;;;1.50;1.10;;;10.50;98.20;;;;;;5095672;28;20483;-79
2022/10/10 05:25:26;;;;;;;1.50;1.10;;;10.50;98.20;;;;;;5089087;28;20468;-80
2022/10/10 05:27:53;;;;;;;1.50;1.20;;;10.50;98.20;;;;;;5095298;28;20491;-78
2022/10/10 05:30:21;;;;;;;1.53;1.30;;;10.40;98.20;;;;;;5090640;28;20506;-79
2022/10/10 05:32:48;;;;;;;1.50;1.20;;;10.40;98.20;;;;;;5095014;28;20566;-79
2022/10/10 05:35:16;;;;;;;2.10;1.93;;;10.40;98.20;;;;;;5090153;28;20472;-79
2022/10/10 05:37:45;;;;;;;1.50;1.10;;;10.40;98.20;;;;;;5093312;28;20498;-79
2022/10/10 05:40:12;;;;;;;1.50;1.10;;;10.30;98.20;;;;;;5090203;28;20565;-79
2022/10/10 05:42:39;;;;;;;1.50;1.20;;;10.30;98.20;;;;;;5093380;28;20582;-79
2022/10/10 05:45:07;;;;;;;1.50;1.10;;;10.30;98.20;;;;;;5088064;28;20536;-79
2022/10/10 05:47:34;;;;;;;1.50;1.10;;;10.30;98.20;;;;;;5092516;28;21088;-79
2022/10/10 05:50:03;;;;;;;1.50;1.10;;;10.20;98.20;;;;;;5090531;28;20924;-79
2022/10/10 05:52:30;;;;;;;1.50;1.20;;;10.20;98.20;;;;;;5092273;28;20839;-79
2022/10/10 05:54:59;;;;;;;1.50;1.10;;;10.20;98.20;;;;;;5092025;28;20464;-79
2022/10/10 05:57:26;;;;;;;1.50;1.10;;;10.20;98.20;;;;;;5092082;28;20495;-81
2022/10/10 05:59:53;;;;;;;1.50;1.17;;;10.20;98.20;;;;;;5092370;28;20786;-80
2022/10/10 06:02:21;;;;;;;1.50;1.20;;;10.20;98.20;;;;;;5091332;28;20853;-79
2022/10/10 06:04:48;;;;;;;1.50;1.10;;;10.20;98.20;;;;;;5093060;28;20856;-80
2022/10/10 06:07:15;;;;;;;1.50;1.20;;;10.20;98.20;;;;;;5089369;28;20483;-79
2022/10/10 06:09:42;;;;;;;1.50;1.20;;;10.20;98.20;;;;;;5091889;28;20487;-79
2022/10/10 06:12:11;;;;;;;1.50;1.10;;;10.20;98.20;;;;;;5088837;27;20956;-79
2022/10/10 06:14:38;;;;;;;1.50;1.30;;;10.20;98.20;;;;;;5093925;28;20907;-78
2022/10/10 06:17:06;;;;;;;1.70;1.50;;;10.20;98.20;;;;;;5087613;28;20475;-80
2022/10/10 06:19:33;;;;;;;1.50;1.20;;;10.20;98.20;;;;;;5093399;28;20587;-79
2022/10/10 06:22:00;;;;;;;1.50;1.10;;;10.30;98.20;;;;;;5087355;28;20698;-80
2022/10/10 06:24:28;;;;;;;1.50;1.10;;;10.30;98.20;;;;;;5095026;28;20494;-80
2022/10/10 06:26:55;;;;;;;1.50;1.10;;;10.30;98.20;;;;;;5088036;28;20483;-80
2022/10/10 06:29:24;;;;;;;1.50;1.10;;;10.40;98.20;;;;;;5093903;28;20488;-79
2022/10/10 06:31:52;;;;;;;1.50;1.10;;;10.40;98.20;;;;;;5084198;28;20482;-80
2022/10/10 06:34:19;;;;;;;1.50;1.10;;;10.50;98.20;;;;;;5094498;28;20452;-79
2022/10/10 06:36:48;;;;;;;1.50;1.10;;;10.60;98.20;;;;;;5081432;28;20483;-80
2022/10/10 06:39:16;;;;;;;1.50;1.10;;;10.70;98.20;;;;;;5092639;28;20488;-79
2022/10/10 06:41:43;;;;;;;1.50;1.20;;;10.80;98.20;;;;;;5087268;28;20489;-79
2022/10/10 06:44:11;;;;;;;1.50;1.20;;;11.00;98.20;;;;;;5096266;28;20460;-78
2022/10/10 06:46:39;;;;;;;1.50;1.20;;;11.10;98.20;;;;;;5080082;28;20480;-78
2022/10/10 06:49:07;;;;;;;1.50;1.10;;;11.20;98.20;;;;;;5094180;28;20541;-78
2022/10/10 06:51:36;;;;;;;1.50;1.20;;;11.40;98.20;;;;;;5083646;28;20474;-81
2022/10/10 06:54:04;;;;;;;1.50;1.10;;;11.50;98.20;;;;;;5095822;28;20453;-79
2022/10/10 06:56:33;;;;;;;1.50;1.20;;;11.70;98.20;;;;;;5082457;28;20471;-79
2022/10/10 06:59:01;;;;;;;1.50;1.10;;;11.80;98.20;;;;;;5096274;28;20484;-80
2022/10/10 07:01:29;;;;;;;1.50;1.13;;;12.00;98.20;;;;;;5082609;27;20472;-78
2022/10/10 07:03:57;;;;;;;1.50;1.13;;;12.10;98.20;;;;;;5098217;28;20583;-79
2022/10/10 07:06:24;;;;;;;1.50;1.10;;;12.30;98.20;;;;;;5081838;28;20478;-79
2022/10/10 07:08:52;;;;;;;1.50;1.10;;;12.40;98.20;;;;;;5095395;28;20476;-79
2022/10/10 07:11:19;;;;;;;1.50;1.10;;;12.50;98.20;;;;;;5080472;28;20479;-79
2022/10/10 07:13:49;;;;;;;1.50;1.10;;;12.60;98.20;;;;;;5099198;28;20461;-79
2022/10/10 07:16:17;;;;;;;1.50;1.00;;;12.70;98.20;;;;;;5080705;28;20479;-79
2022/10/10 07:18:44;;;;;;;1.50;1.10;;;12.90;98.20;;;;;;5098868;28;20480;-79
2022/10/10 07:21:13;;;;;;;1.50;1.10;;;13.10;98.20;;;;;;5084077;28;20487;-78
2022/10/10 07:23:40;;;;;;;1.50;1.10;;;13.10;98.20;;;;;;5102045;28;20521;-80
2022/10/10 07:26:10;;;;;;;1.50;1.20;;;13.10;98.20;;;;;;5083131;28;29385;-78
2022/10/10 07:28:38;;;;;;;1.50;1.00;;;13.10;98.20;;;;;;5101471;28;21031;-78
2022/10/10 07:34:10;;;;;;;1.50;1.00;;;13.30;98.20;;;;;;5067489;28;20462;-78
2022/10/10 07:36:38;;;;;;;1.67;1.57;;;13.40;98.20;;;;;;5086095;28;20479;-79
2022/10/10 07:39:05;;;;;;;1.50;1.10;;;13.60;98.20;;;;;;5099164;28;20492;-79
2022/10/10 07:41:32;;;;;;;1.50;1.10;;;13.70;98.20;;;;;;5085865;27;20479;-79
2022/10/10 07:43:59;;;;;;;1.50;1.00;;;13.80;98.20;;;;;;5100448;28;20471;-78
2022/10/10 07:46:29;;;;;;;1.50;1.10;;;13.90;98.20;;;;;;5085867;28;20543;-79
2022/10/10 07:48:56;;;;;;;1.50;1.00;;;14.00;98.20;;;;;;5100504;28;20484;-78
2022/10/10 07:51:23;;;;;;;1.50;1.00;;;14.00;98.20;;;;;;5084901;28;20471;-78
2022/10/10 07:53:53;;;;;;;1.50;1.00;;;14.10;98.20;;;;;;5101794;28;20460;-79
2022/10/10 07:56:20;;;;;;;1.50;1.10;;;14.10;98.20;;;;;;5083604;28;20480;-78
2022/10/10 07:58:47;;;;;;;1.50;0.90;;;14.10;98.20;;;;;;5099743;28;20579;-80
2022/10/10 08:01:14;;;;;;;1.50;1.00;;;14.10;98.20;;;;;;5082814;28;20487;-79
2022/10/10 08:03:42;;;;;;;1.50;1.00;;;14.20;98.20;;;;;;5102637;28;20613;-78
2022/10/10 08:06:11;;;;;;;1.50;1.07;;;14.20;98.20;;;;;;5080151;28;20488;-79
2022/10/10 08:08:39;;;;;;;1.50;1.00;;;14.20;98.20;;;;;;5102474;28;21061;-79
2022/10/10 08:11:09;;;;;;;1.50;1.10;;;14.30;98.20;;;;;;5081969;28;20778;-79
2022/10/10 08:13:39;;;;;;;1.50;1.00;;;14.40;98.20;;;;;;5101589;28;20468;-80
2022/10/10 08:16:06;;;;;;;1.50;1.00;;;14.40;98.20;;;;;;5081984;28;20995;-79
2022/10/10 08:18:33;;;;;;;1.70;1.30;;;14.40;98.20;;;;;;5103627;28;20789;-78
2022/10/10 08:21:02;;;;;;;1.50;1.10;;;14.40;98.20;;;;;;5081328;28;21053;-79
2022/10/10 08:23:30;;;;;;;1.50;1.00;;;14.40;98.20;;;;;;5103690;28;20468;-78
2022/10/10 08:26:05;;;;;;;1.50;1.00;;;14.40;98.20;;;;;;5079665;27;20871;-78
2022/10/10 08:28:35;;;;;;;8.37;2.60;;;14.40;98.20;;;;;;5102312;28;20519;-77
2022/10/10 08:31:05;;;;;;;1.50;1.00;;;14.30;98.20;;;;;;5080692;28;20453;-77
2022/10/10 08:33:32;;;;;;;2.27;2.07;;;14.30;98.20;;;;;;5101942;28;21014;-76
2022/10/10 08:36:04;;;;;;;1.50;1.10;;;14.40;98.20;;;;;;5079601;28;20471;-79
2022/10/10 08:38:31;;;;;;;1.50;1.00;;;14.40;98.20;;;;;;5100694;28;20480;-77
2022/10/10 08:41:01;;;;;;;1.50;1.00;;;14.60;98.20;;;;;;5080601;28;20579;-80
2022/10/10 08:43:32;;;;;;;1.50;1.00;;;14.80;98.20;;;;;;5086015;28;20490;-79
2022/10/10 08:46:08;;;;;;;1.50;1.00;;;14.90;98.20;;;;;;5080244;28;20518;-78
2022/10/10 08:48:37;;;;;;;1.50;1.00;;;15.10;98.20;;;;;;5099747;28;20519;-77
2022/10/10 08:51:09;;;;;;;1.50;1.00;;;15.20;98.20;;;;;;5081268;28;20464;-78
2022/10/10 08:53:41;;;;;;;1.50;1.00;;;15.40;98.20;;;;;;5099722;28;20710;-80
2022/10/10 08:56:14;;;;;;;1.50;0.97;;;15.60;98.20;;;;;;5080984;28;20529;-78
2022/10/10 08:58:45;;;;;;;1.50;1.00;;;15.70;98.20;;;;;;5100659;28;20487;-78
2022/10/10 09:01:19;;;;;;;1.50;1.00;;;15.90;98.20;;;;;;5081676;28;20574;-77
2022/10/10 09:03:49;;;;;;;1.50;1.07;;;16.20;98.20;;;;;;5099911;28;20469;-78
2022/10/10 09:06:34;;;;;;;1.50;1.00;;;16.40;97.40;;;;;;5082283;28;20527;-77
2022/10/10 09:09:10;;;;;;;1.50;1.00;;;16.60;97.60;;;;;;5098139;28;20506;-78
2022/10/10 09:11:53;;;;;;;1.60;1.20;;;16.70;96.20;;;;;;5086066;28;20467;-78
2022/10/10 09:14:33;;;;;;;1.50;1.00;;;16.80;96.40;;;;;;5094740;28;20590;-78
2022/10/10 09:17:12;;;;;;;1.40;0.90;;;16.90;96.00;;;;;;5085369;28;21033;-80
2022/10/10 09:19:49;;;;;;;1.50;0.90;;;17.20;95.80;;;;;;5090258;28;21001;-79
2022/10/10 09:22:20;;;;;;;1.50;1.00;;;17.30;95.10;;;;;;5089545;28;20929;-81
2022/10/10 09:24:51;;;;;;;1.50;0.90;;;17.40;94.40;;;;;;5087441;28;20465;-80
2022/10/10 09:27:24;;;;;;;1.83;1.73;;;17.40;94.90;;;;;;5088148;28;20522;-78
2022/10/10 09:29:56;;;;;;;1.50;1.00;;;17.50;95.30;;;;;;5088852;28;20495;-79
2022/10/10 09:32:29;;;;;;;1.50;1.00;;;17.70;94.80;;;;;;5089954;28;20980;-80
2022/10/10 09:35:04;;;;;;;3.50;3.03;;;17.90;93.90;;;;;;5089159;28;20559;-80
2022/10/10 09:37:36;;;;;;;1.50;0.90;;;18.10;94.10;;;;;;5090826;28;20502;-80
2022/10/10 09:40:12;;;;;;;1.50;1.00;;;18.40;93.80;;;;;;5090157;28;20542;-78
2022/10/10 09:42:43;;;;;;;1.50;1.00;;;18.50;92.70;;;;;;5090502;28;20491;-79
2022/10/10 09:45:17;;;;;;;1.50;0.90;;;18.70;92.60;;;;;;5089111;28;20465;-80
2022/10/10 09:47:48;;;;;;;1.50;0.90;;;18.90;92.30;;;;;;5091883;28;20588;-79
2022/10/10 09:50:16;;;;;;;1.50;0.90;;;19.20;91.50;;;;;;5088067;28;20472;-79
2022/10/10 09:52:46;;;;;;;1.50;0.90;;;19.40;90.90;;;;;;5090958;28;21240;-79
2022/10/10 09:55:25;;;;;;;1.50;0.90;;;19.50;90.90;;;;;;5091595;28;20459;-79
2022/10/10 09:57:55;;;;;;;1.50;0.90;;;19.70;90.40;;;;;;5094926;28;20980;-76
2022/10/10 10:00:35;;;;;;;1.50;0.90;;;20.00;89.30;;;;;;5089905;28;20470;-78
2022/10/10 10:03:15;;;;;;;1.50;0.90;;;20.20;88.60;;;;;;5096681;28;20475;-79
2022/10/10 10:05:55;;;;;;;1.50;0.90;;;20.20;88.50;;;;;;5091149;28;20470;-79
2022/10/10 10:08:56;;;;;;;10.83;1.37;;;20.10;88.50;;;;;;5078066;28;20533;-79
2022/10/10 10:11:31;;;;;;;1.50;1.00;;;19.80;88.60;;;;;;5071960;28;20543;-78
2022/10/10 10:14:01;;;;;;;1.50;0.90;;;19.80;89.50;;;;;;5096431;28;20482;-79
2022/10/10 10:16:34;;;;;;;1.47;0.90;;;19.80;90.40;;;;;;5081225;28;21014;-78
2022/10/10 10:19:03;;;;;;;1.50;0.90;;;20.00;90.10;;;;;;5092470;27;20560;-78
2022/10/10 10:21:31;;;;;;;1.50;0.90;;;20.00;89.90;;;;;;5078615;28;20483;-78
2022/10/10 10:24:00;;;;;;;1.43;0.90;;;20.10;89.40;;;;;;5098403;28;20468;-77
2022/10/10 10:26:34;;;;;;;1.50;0.90;;;20.20;89.60;;;;;;5073505;28;20487;-77
2022/10/10 10:29:01;;;;;;;1.50;0.90;;;20.20;87.90;;;;;;5087119;28;20496;-77
2022/10/10 10:31:45;;;;;;;1.50;0.83;;;20.00;88.60;;;;;;5082718;28;20562;-78
2022/10/10 10:34:39;;;;;;;1.47;0.90;;;20.10;88.90;;;;;;5092946;28;20832;-78
2022/10/10 10:37:17;;;;;;;1.50;0.90;;;20.30;88.50;;;;;;5062593;28;20484;-79
2022/10/10 10:40:33;;;;;;;1.43;0.90;;;20.40;88.50;;;;;;5092591;28;20626;-80
2022/10/10 10:43:40;;;;;;;1.50;0.90;;;20.60;88.40;;;;;;5067815;28;20884;-76
2022/10/10 10:46:16;;;;;;;1.50;0.90;;;21.00;87.60;;;;;;5057871;28;20475;-77
2022/10/10 10:48:45;;;;;;;1.50;0.80;;;21.30;86.50;;;;;;5098527;28;20579;-77
2022/10/10 10:51:33;;;;;;;1.50;0.90;;;21.50;85.80;;;;;;5072899;28;20472;-78
2022/10/10 10:54:10;;;;;;;1.50;0.90;;;21.60;85.60;;;;;;5086423;28;20498;-77
2022/10/10 10:56:44;;;;;;;1.50;1.00;;;21.70;84.80;;;;;;5082927;28;20539;-79
2022/10/10 10:59:27;;;;;;;1.50;0.90;;;21.90;85.60;;;;;;5094781;28;20490;-77
2022/10/10 11:02:03;;;;;;;1.50;0.90;;;22.00;84.60;;;;;;5085298;28;20490;-78
2022/10/10 11:04:55;;;;;;;1.50;0.90;;;22.10;84.10;;;;;;5093098;28;20487;-78
2022/10/10 11:07:24;;;;;;;1.50;0.90;;;22.10;84.30;;;;;;5089505;28;20822;-77
2022/10/10 11:09:56;;;;;;;1.50;0.90;;;22.10;83.80;;;;;;5087991;28;20573;-77
2022/10/10 11:12:39;;;;;;;1.50;0.90;;;22.10;85.30;;;;;;5089009;28;20540;-77
2022/10/10 11:15:13;;;;;;;1.50;0.90;;;22.20;83.30;;;;;;5087574;28;20554;-77
2022/10/10 11:17:45;;;;;;;1.47;0.90;;;22.30;82.70;;;;;;5089242;28;20475;-77
2022/10/10 11:20:20;;;;;;;1.47;0.90;;;22.30;82.60;;;;;;5087796;28;20476;-77
2022/10/10 11:22:57;;;;;;;1.43;0.90;;;22.20;83.10;;;;;;5090351;28;21045;-78
2022/10/10 11:25:28;;;;;;;1.50;0.90;;;22.30;82.10;;;;;;5080122;28;20464;-76
2022/10/10 11:28:01;;;;;;;1.43;0.90;;;22.30;82.30;;;;;;5069696;28;20476;-76
2022/10/10 11:30:33;;;;;;;1.50;0.80;;;22.30;82.00;;;;;;5084029;28;20456;-77
2022/10/10 11:33:07;;;;;;;1.47;0.90;;;22.20;82.40;;;;;;5068337;28;20476;-76
2022/10/10 11:35:39;;;;;;;1.47;0.90;;;22.30;82.40;;;;;;5085266;28;20886;-77
2022/10/10 11:38:16;;;;;;;2.23;1.23;;;22.30;81.90;;;;;;5090305;28;20495;-76
2022/10/10 11:40:51;;;;;;;1.50;0.90;;;22.40;82.10;;;;;;5085063;28;20525;-77
2022/10/10 11:43:29;;;;;;;1.50;0.90;;;22.50;80.40;;;;;;5071473;28;20555;-77
2022/10/10 11:46:03;;;;;;;1.50;0.90;;;22.40;80.60;;;;;;5075446;28;20468;-76
2022/10/10 11:48:41;;;;;;;1.50;0.90;;;22.50;80.30;;;;;;5098790;28;20491;-77
2022/10/10 11:51:22;;;;;;;1.50;0.90;;;22.40;81.10;;;;;;5076117;28;20475;-77
2022/10/10 11:53:55;;;;;;;1.43;0.90;;;22.40;80.90;;;;;;5095203;28;20452;-77
2022/10/10 11:56:29;;;;;;;1.47;0.90;;;22.40;81.70;;;;;;5078553;28;20467;-77
2022/10/10 11:59:01;;;;;;;1.50;1.13;;;22.30;81.80;;;;;;5092097;28;20897;-78
2022/10/10 12:01:33;;;;;;;1.50;0.97;;;22.20;81.30;;;;;;5079649;28;20479;-77
2022/10/10 12:04:00;;;;;;;1.47;0.90;;;22.00;81.40;;;;;;5094156;28;20479;-78
2022/10/10 12:06:33;;;;;;;1.43;0.90;;;21.90;82.20;;;;;;5080017;28;21040;-76
2022/10/10 12:09:06;;;;;;;1.47;0.83;;;21.90;82.70;;;;;;5097639;28;20581;-78
2022/10/10 12:11:40;;;;;;;1.50;0.90;;;21.80;82.90;;;;;;5080956;28;20587;-77
2022/10/10 12:14:10;;;;;;;1.63;1.40;;;21.70;83.50;;;;;;5097508;28;20460;-77
2022/10/10 12:16:38;;;;;;;3.00;1.67;;;21.70;84.00;;;;;;5075431;28;20832;-77
2022/10/10 12:19:07;;;;;;;2.70;1.60;;;21.70;84.00;;;;;;5087516;28;20499;-77
2022/10/10 12:21:56;;;;;;;1.50;1.00;;;21.70;84.70;;;;;;5084353;27;20513;-77
2022/10/10 12:24:26;;;;;;;1.50;0.90;;;21.80;83.90;;;;;;5093670;28;20566;-77
2022/10/10 12:27:29;;;;;;;1.43;0.90;;;21.70;84.90;;;;;;5084012;28;20480;-77
2022/10/10 12:30:16;;;;;;;1.47;0.90;;;21.80;84.20;;;;;;5089239;28;20605;-78
2022/10/10 12:32:46;;;;;;;1.47;0.90;;;21.90;84.60;;;;;;5092466;28;20467;-77
2022/10/10 12:35:42;;;;;;;1.60;1.10;;;22.00;84.30;;;;;;5087211;28;20468;-78
2022/10/10 12:38:22;;;;;;;1.43;0.90;;;22.10;83.10;;;;;;5076875;28;20538;-77
2022/10/10 12:41:10;;;;;;;1.43;0.90;;;22.10;84.40;;;;;;5080027;28;20464;-77
2022/10/10 12:43:42;;;;;;;1.47;0.90;;;22.30;83.20;;;;;;5098289;28;20959;-76
2022/10/10 12:46:18;;;;;;;1.43;0.90;;;22.40;83.60;;;;;;5075526;28;20457;-76
2022/10/10 12:48:56;;;;;;;1.50;1.00;;;22.40;84.00;;;;;;5084492;28;20503;-76
2022/10/10 12:51:23;;;;;;;1.47;0.97;;;22.40;83.90;;;;;;5075865;28;20525;-77
2022/10/10 12:53:54;;;;;;;1.47;0.90;;;22.40;83.60;;;;;;5085199;28;20448;-77
2022/10/10 12:56:37;;;;;;;1.47;0.83;;;22.50;84.00;;;;;;5078764;28;20863;-77
2022/10/10 12:59:07;;;;;;;1.50;0.90;;;22.50;82.30;;;;;;5092450;28;20496;-77
2022/10/10 13:01:39;;;;;;;1.50;0.90;;;22.50;82.40;;;;;;5082426;28;20893;-78
2022/10/10 13:04:07;;;;;;;1.47;0.90;;;22.50;82.40;;;;;;5096276;28;20547;-77
2022/10/10 13:06:38;;;;;;;1.43;0.90;;;22.60;82.60;;;;;;5082062;28;20479;-78
2022/10/10 13:09:10;;;;;;;1.43;0.90;;;22.70;83.40;;;;;;5095513;28;20496;-77
2022/10/10 13:11:53;;;;;;;1.50;0.90;;;22.80;82.20;;;;;;5082175;28;20737;-76